Time;durP1;ratioP1;P1;durP2;ratioP2;P2;SDS_P1;SDS_P2;PMS_P1;PMS_P2;Temp;Humidity;BMP_temperature;BMP_pressure;BME280_temperature;BME280_humidity;BME280_pressure;Samples;Min_cycle;Max_cycle;Signal;HPM_P1;HPM_P2
2023/08/20 00:00:25;;;;;;;13.52;8.52;;;19.10;99.90;;;;;;5007728;28;20038;-56
2023/08/20 00:02:57;;;;;;;15.57;8.15;;;19.10;99.90;;;;;;5004469;28;20099;-55
2023/08/20 00:05:23;;;;;;;17.13;9.33;;;19.00;99.90;;;;;;5021969;28;20029;-57
2023/08/20 00:07:49;;;;;;;12.73;8.07;;;19.20;99.90;;;;;;5015320;28;20037;-57
2023/08/20 00:10:14;;;;;;;12.07;8.52;;;19.00;99.90;;;;;;5006736;28;20041;-55
2023/08/20 00:12:40;;;;;;;16.25;8.43;;;18.90;99.90;;;;;;5014398;28;20038;-57
2023/08/20 00:15:06;;;;;;;13.25;8.35;;;19.00;99.90;;;;;;5027268;28;20029;-56
2023/08/20 00:17:36;;;;;;;15.63;8.52;;;19.00;99.90;;;;;;5005421;28;20056;-56
2023/08/20 00:20:16;;;;;;;14.05;8.30;;;19.00;99.90;;;;;;5026754;28;20533;-57
2023/08/20 00:22:44;;;;;;;14.45;8.00;;;19.20;99.90;;;;;;5019838;28;20124;-57
2023/08/20 00:25:11;;;;;;;14.55;8.27;;;19.10;99.90;;;;;;5026556;28;20146;-56
2023/08/20 00:27:37;;;;;;;13.18;8.10;;;19.00;99.90;;;;;;5018518;28;20111;-57
2023/08/20 00:30:03;;;;;;;14.95;8.52;;;18.80;99.90;;;;;;5018313;28;20041;-54
2023/08/20 00:32:29;;;;;;;14.73;8.60;;;19.00;99.90;;;;;;5008166;28;20041;-55
2023/08/20 00:34:55;;;;;;;12.68;7.70;;;19.10;99.90;;;;;;5015788;28;20038;-55
2023/08/20 00:37:20;;;;;;;16.13;8.15;;;18.90;99.90;;;;;;5010677;28;20125;-56
2023/08/20 00:39:47;;;;;;;13.82;7.50;;;18.90;99.90;;;;;;5003436;28;20176;-56
2023/08/20 00:42:15;;;;;;;12.02;7.75;;;18.80;99.90;;;;;;5008112;28;20311;-57
2023/08/20 00:44:44;;;;;;;13.90;7.47;;;18.70;99.90;;;;;;5010033;28;20038;-57
2023/08/20 00:47:10;;;;;;;16.30;7.05;;;18.80;99.90;;;;;;5006304;28;20034;-57
2023/08/20 00:49:36;;;;;;;14.38;8.02;;;18.70;99.90;;;;;;5004759;28;20037;-56
2023/08/20 00:52:03;;;;;;;14.18;7.88;;;18.60;99.90;;;;;;5005148;28;20136;-54
2023/08/20 00:54:30;;;;;;;10.85;7.43;;;18.80;99.90;;;;;;5026905;28;20125;-55
2023/08/20 00:56:56;;;;;;;18.77;8.45;;;18.70;99.90;;;;;;5025940;28;20428;-57
2023/08/20 00:59:22;;;;;;;17.23;8.05;;;18.70;99.90;;;;;;5026361;28;20117;-56
2023/08/20 01:01:48;;;;;;;13.18;8.05;;;18.60;99.90;;;;;;5025536;28;20048;-57
2023/08/20 01:04:13;;;;;;;12.02;7.75;;;18.70;99.90;;;;;;5006665;28;20026;-56
2023/08/20 01:07:02;;;;;;;12.05;7.57;;;18.50;99.90;;;;;;5006284;28;20034;-57
2023/08/20 01:09:54;;;;;;;13.90;7.53;;;18.70;99.90;;;;;;5018187;28;20029;-57
2023/08/20 01:12:20;;;;;;;9.23;6.93;;;18.50;99.90;;;;;;5008465;28;20030;-58
2023/08/20 01:14:46;;;;;;;17.58;7.63;;;18.40;99.90;;;;;;5006503;28;20030;-56
2023/08/20 01:17:11;;;;;;;16.13;8.13;;;18.50;99.90;;;;;;5015515;28;20025;-56
2023/08/20 01:19:38;;;;;;;16.90;8.70;;;18.60;99.90;;;;;;5013338;28;20497;-59
2023/08/20 01:22:48;;;;;;;16.10;8.77;;;18.50;99.90;;;;;;5005810;28;20057;-56
2023/08/20 01:25:28;;;;;;;18.58;9.02;;;18.60;99.90;;;;;;4990874;28;20050;-57
2023/08/20 01:28:28;;;;;;;20.30;10.55;;;18.70;99.90;;;;;;5005975;28;20522;-56
2023/08/20 01:30:57;;;;;;;21.13;10.30;;;18.70;99.90;;;;;;5003810;28;20042;-57
2023/08/20 01:33:24;;;;;;;19.13;11.02;;;18.70;99.90;;;;;;5015000;28;20091;-57
2023/08/20 01:35:50;;;;;;;18.67;11.00;;;18.70;99.90;;;;;;5012135;28;20039;-57
2023/08/20 01:38:17;;;;;;;24.52;12.05;;;;;;;;;;5006910;28;20038;-57
2023/08/20 01:40:42;;;;;;;22.30;12.13;;;18.10;99.90;;;;;;5006164;28;20038;-57
2023/08/20 01:43:08;;;;;;;18.95;12.13;;;18.20;99.90;;;;;;5006388;28;20088;-55
2023/08/20 01:45:34;;;;;;;24.48;13.05;;;18.00;99.90;;;;;;5014054;28;20037;-56
2023/08/20 01:47:59;;;;;;;24.30;12.32;;;18.20;99.90;;;;;;5021198;28;20087;-56
2023/08/20 01:50:25;;;;;;;27.35;14.20;;;18.40;99.90;;;;;;5020495;28;20061;-57
2023/08/20 01:52:51;;;;;;;23.63;13.38;;;18.50;99.90;;;;;;4995453;28;20603;-57
2023/08/20 01:55:16;;;;;;;24.67;13.18;;;18.50;99.90;;;;;;4997638;28;20038;-57
2023/08/20 01:57:43;;;;;;;28.77;14.52;;;18.50;99.90;;;;;;5005472;28;20038;-56
2023/08/20 02:00:09;;;;;;;28.77;14.93;;;18.50;99.90;;;;;;5011481;28;20087;-56
2023/08/20 02:02:34;;;;;;;26.80;15.85;;;18.50;99.90;;;;;;5005956;28;20041;-57
2023/08/20 02:05:01;;;;;;;28.52;15.20;;;18.50;99.90;;;;;;5022664;28;20584;-56
2023/08/20 02:07:26;;;;;;;26.33;15.55;;;18.40;99.90;;;;;;5020416;28;20660;-56
2023/08/20 02:09:52;;;;;;;27.55;16.15;;;18.50;99.90;;;;;;5006001;28;20057;-55
2023/08/20 02:12:18;;;;;;;34.50;17.10;;;18.50;99.90;;;;;;5003156;28;20045;-55
2023/08/20 02:14:43;;;;;;;33.35;17.92;;;18.60;99.90;;;;;;5007261;28;20026;-57
2023/08/20 02:17:09;;;;;;;33.42;18.77;;;18.60;99.90;;;;;;5008681;28;20385;-57
2023/08/20 02:19:35;;;;;;;31.88;19.08;;;18.70;99.90;;;;;;4996519;28;20061;-56
2023/08/20 02:22:00;;;;;;;32.38;19.80;;;18.70;99.90;;;;;;5007572;28;20030;-56
2023/08/20 02:24:26;;;;;;;31.67;19.17;;;18.70;99.90;;;;;;5019004;28;20149;-56
2023/08/20 02:26:51;;;;;;;36.28;19.10;;;18.60;99.90;;;;;;5021063;28;20098;-56
2023/08/20 02:29:17;;;;;;;33.85;18.88;;;18.60;99.90;;;;;;5006402;28;20525;-57
2023/08/20 02:31:43;;;;;;;31.55;17.63;;;18.50;99.90;;;;;;5024537;28;20045;-57
2023/08/20 02:34:08;;;;;;;30.70;18.13;;;18.40;99.90;;;;;;5023571;28;20049;-56
2023/08/20 02:36:34;;;;;;;31.13;17.48;;;18.50;99.90;;;;;;5023662;28;20064;-55
2023/08/20 02:38:59;;;;;;;28.67;17.80;;;18.60;99.90;;;;;;5012252;28;20140;-56
2023/08/20 02:41:25;;;;;;;38.55;17.23;;;18.70;99.90;;;;;;5008165;28;20080;-56
2023/08/20 02:43:50;;;;;;;32.28;17.35;;;18.70;99.90;;;;;;5017451;28;20088;-57
2023/08/20 02:46:16;;;;;;;31.20;17.92;;;18.70;99.90;;;;;;5022222;28;20203;-56
2023/08/20 02:48:41;;;;;;;29.00;16.95;;;18.70;99.90;;;;;;5018843;28;20054;-57
2023/08/20 02:51:07;;;;;;;26.60;14.80;;;18.70;99.90;;;;;;5004748;28;20034;-57
2023/08/20 02:53:33;;;;;;;33.20;16.60;;;18.50;99.90;;;;;;5004725;28;20042;-56
2023/08/20 02:55:58;;;;;;;26.33;15.10;;;18.50;99.90;;;;;;5003189;28;20045;-57
2023/08/20 02:58:24;;;;;;;27.40;15.80;;;18.40;99.90;;;;;;5004727;28;20410;-57
2023/08/20 03:00:50;;;;;;;32.40;16.52;;;18.50;99.90;;;;;;5005101;28;20133;-57
2023/08/20 03:03:16;;;;;;;29.05;16.15;;;18.50;99.90;;;;;;5004490;28;20124;-57
2023/08/20 03:05:41;;;;;;;26.48;16.83;;;18.60;99.90;;;;;;5004037;28;20092;-55
2023/08/20 03:08:07;;;;;;;29.52;16.83;;;18.60;99.90;;;;;;5004824;28;20037;-56
2023/08/20 03:10:34;;;;;;;32.47;18.40;;;18.50;99.90;;;;;;5020376;28;20041;-58
2023/08/20 03:13:00;;;;;;;32.50;19.08;;;18.60;99.90;;;;;;5005109;28;20064;-56
2023/08/20 03:15:27;;;;;;;32.75;19.02;;;18.50;99.90;;;;;;5004027;28;20034;-56
2023/08/20 03:17:52;;;;;;;31.02;19.63;;;18.30;99.90;;;;;;5018861;28;20163;-57
2023/08/20 03:20:18;;;;;;;28.92;18.15;;;18.40;99.90;;;;;;5010848;28;20069;-55
2023/08/20 03:22:43;;;;;;;37.22;19.27;;;18.30;99.90;;;;;;5004979;28;20022;-57
2023/08/20 03:25:09;;;;;;;36.28;19.27;;;18.40;99.90;;;;;;5007700;28;20099;-57
2023/08/20 03:27:34;;;;;;;40.47;20.52;;;18.40;99.90;;;;;;5008248;28;20026;-55
2023/08/20 03:30:01;;;;;;;32.30;19.25;;;18.50;99.90;;;;;;5003153;28;20038;-57
2023/08/20 03:32:26;;;;;;;32.78;20.02;;;18.60;99.90;;;;;;5007656;28;20057;-57
2023/08/20 03:34:53;;;;;;;36.75;19.77;;;18.50;99.90;;;;;;5024618;28;20068;-55
2023/08/20 03:37:19;;;;;;;32.90;19.63;;;18.50;99.90;;;;;;5028034;28;20378;-57
2023/08/20 03:39:45;;;;;;;31.35;18.30;;;18.60;99.90;;;;;;5013773;28;20041;-56
2023/08/20 03:42:11;;;;;;;30.15;19.10;;;18.50;99.90;;;;;;5008487;28;20120;-57
2023/08/20 03:44:36;;;;;;;30.88;19.25;;;18.50;99.90;;;;;;5020272;28;20053;-57
2023/08/20 03:47:02;;;;;;;34.40;18.77;;;18.50;99.90;;;;;;5018205;28;20026;-56
2023/08/20 03:49:27;;;;;;;37.88;19.63;;;18.50;99.90;;;;;;5008126;28;20504;-57
2023/08/20 03:51:53;;;;;;;31.00;18.38;;;18.50;99.90;;;;;;5007067;28;20041;-57
2023/08/20 03:54:18;;;;;;;31.58;17.45;;;18.40;99.90;;;;;;5003898;28;20033;-57
2023/08/20 03:56:44;;;;;;;31.00;18.08;;;18.40;99.90;;;;;;5007723;28;20092;-56
2023/08/20 03:59:09;;;;;;;26.30;17.30;;;18.40;99.90;;;;;;5015527;28;20040;-57
2023/08/20 04:01:36;;;;;;;29.88;17.73;;;18.30;99.90;;;;;;5006175;28;20041;-56
2023/08/20 04:04:03;;;;;;;32.65;19.13;;;18.40;99.90;;;;;;5009362;28;20075;-57
2023/08/20 04:06:29;;;;;;;37.10;19.05;;;18.30;99.90;;;;;;5019458;28;20781;-57
2023/08/20 04:08:54;;;;;;;27.38;18.08;;;18.40;99.90;;;;;;5016790;28;20042;-57
2023/08/20 04:11:20;;;;;;;35.40;18.58;;;18.20;99.90;;;;;;5011111;28;20049;-60
2023/08/20 04:13:45;;;;;;;37.95;19.67;;;18.20;99.90;;;;;;5014207;28;20034;-57
2023/08/20 04:16:11;;;;;;;39.53;20.92;;;18.10;99.90;;;;;;5014750;28;20415;-57
2023/08/20 04:18:37;;;;;;;35.75;19.92;;;18.30;99.90;;;;;;5007056;28;20042;-57
2023/08/20 04:21:02;;;;;;;31.90;18.73;;;18.40;99.90;;;;;;5007167;28;20113;-56
2023/08/20 04:23:28;;;;;;;34.35;20.15;;;18.30;99.90;;;;;;5007075;28;20042;-56
2023/08/20 04:25:53;;;;;;;28.90;18.58;;;18.30;99.90;;;;;;5007410;28;20026;-56
2023/08/20 04:28:19;;;;;;;29.92;18.05;;;18.20;99.90;;;;;;5007237;28;20563;-57
2023/08/20 04:30:44;;;;;;;26.95;17.15;;;18.00;99.90;;;;;;5015073;28;20130;-57
2023/08/20 04:33:10;;;;;;;30.58;17.63;;;17.90;99.90;;;;;;5023068;28;20029;-57
2023/08/20 04:35:36;;;;;;;32.38;18.48;;;18.00;99.90;;;;;;5010184;28;20432;-57
2023/08/20 04:38:02;;;;;;;32.60;18.77;;;17.90;99.90;;;;;;5012474;28;20165;-56
2023/08/20 04:40:28;;;;;;;34.58;20.08;;;17.90;99.90;;;;;;4998582;28;20653;-57
2023/08/20 04:42:53;;;;;;;36.83;22.08;;;18.00;99.90;;;;;;4996790;28;20034;-57
2023/08/20 04:45:19;;;;;;;35.83;20.75;;;18.10;99.90;;;;;;5024245;28;20679;-57
2023/08/20 04:47:46;;;;;;;43.03;22.80;;;18.20;99.90;;;;;;5006884;28;20049;-57
2023/08/20 04:50:11;;;;;;;36.05;22.20;;;18.20;99.90;;;;;;5004499;28;20120;-58
2023/08/20 04:52:37;;;;;;;36.70;23.20;;;18.20;99.90;;;;;;5006652;28;20065;-57
2023/08/20 04:55:03;;;;;;;32.88;21.23;;;18.20;99.90;;;;;;5006253;28;20113;-57
2023/08/20 04:57:29;;;;;;;31.10;19.45;;;18.30;99.90;;;;;;5006266;28;20029;-61
2023/08/20 04:59:54;;;;;;;34.70;19.35;;;18.20;99.90;;;;;;5006902;28;20423;-58
2023/08/20 05:02:20;;;;;;;37.17;21.58;;;18.00;99.90;;;;;;5005769;28;20048;-57
2023/08/20 05:04:46;;;;;;;42.35;22.65;;;18.10;99.90;;;;;;5006448;28;20316;-57
2023/08/20 05:07:11;;;;;;;39.45;22.40;;;18.20;99.90;;;;;;4999681;28;20482;-57
2023/08/20 05:09:37;;;;;;;33.75;20.25;;;18.30;99.90;;;;;;4994571;28;20466;-57
2023/08/20 05:12:03;;;;;;;35.88;20.20;;;18.20;99.90;;;;;;5000997;28;20048;-58
2023/08/20 05:14:30;;;;;;;40.08;21.25;;;18.10;99.90;;;;;;5010726;28;20105;-57
2023/08/20 05:16:55;;;;;;;29.85;19.10;;;18.20;99.90;;;;;;5024084;28;20037;-56
2023/08/20 05:19:21;;;;;;;37.78;21.23;;;18.20;99.90;;;;;;5014435;28;20038;-57
2023/08/20 05:21:47;;;;;;;32.38;19.80;;;18.10;99.90;;;;;;5006498;28;20030;-57
2023/08/20 05:24:13;;;;;;;36.72;20.75;;;18.20;99.90;;;;;;5006034;28;20141;-58
2023/08/20 05:26:38;;;;;;;33.80;19.50;;;18.30;99.90;;;;;;5005503;28;20092;-56
2023/08/20 05:29:04;;;;;;;35.13;21.90;;;18.30;99.90;;;;;;5002739;28;20034;-57
2023/08/20 05:31:29;;;;;;;31.55;19.23;;;18.40;99.90;;;;;;5001979;28;20069;-57
2023/08/20 05:33:55;;;;;;;40.15;22.05;;;18.40;99.90;;;;;;5022123;28;20124;-57
2023/08/20 05:36:21;;;;;;;40.10;21.77;;;18.40;99.90;;;;;;5025076;28;22714;-57
2023/08/20 05:38:46;;;;;;;34.78;21.10;;;18.40;99.90;;;;;;5022543;28;20099;-57
2023/08/20 05:41:12;;;;;;;34.63;21.85;;;18.50;99.90;;;;;;5019408;28;20060;-57
2023/08/20 05:43:37;;;;;;;38.03;21.80;;;18.40;99.90;;;;;;5010881;28;20053;-58
2023/08/20 05:46:03;;;;;;;34.80;21.27;;;18.60;99.90;;;;;;5019524;28;20101;-56
2023/08/20 05:48:29;;;;;;;44.72;22.23;;;18.70;99.90;;;;;;4997071;28;20056;-57
2023/08/20 05:50:55;;;;;;;40.33;23.17;;;18.70;99.90;;;;;;5005221;28;20264;-57
2023/08/20 05:53:22;;;;;;;39.95;22.40;;;18.80;99.90;;;;;;5004719;28;20724;-56
2023/08/20 05:55:47;;;;;;;38.92;21.98;;;18.60;99.90;;;;;;5012010;28;20037;-56
2023/08/20 05:58:13;;;;;;;41.28;23.40;;;18.70;99.90;;;;;;5012057;28;20169;-56
2023/08/20 06:00:38;;;;;;;33.97;20.30;;;18.70;99.90;;;;;;5024846;28;20033;-57
2023/08/20 06:03:04;;;;;;;39.03;24.80;;;18.80;99.90;;;;;;5015087;28;20465;-57
2023/08/20 06:05:30;;;;;;;36.83;23.65;;;18.90;99.90;;;;;;5000072;28;20065;-56
2023/08/20 06:07:56;;;;;;;40.80;23.20;;;18.80;99.90;;;;;;4995328;28;20356;-57
2023/08/20 06:10:21;;;;;;;43.42;23.75;;;19.00;99.90;;;;;;5021497;28;20563;-57
2023/08/20 06:12:47;;;;;;;38.25;23.45;;;19.30;99.90;;;;;;5005487;28;20093;-57
2023/08/20 06:15:14;;;;;;;45.20;30.48;;;19.20;99.90;;;;;;5003153;28;20057;-57
2023/08/20 06:17:40;;;;;;;44.75;23.67;;;19.30;99.90;;;;;;5010231;28;20041;-57
2023/08/20 06:20:08;;;;;;;42.60;22.95;;;19.30;99.90;;;;;;5007439;28;20029;-56
2023/08/20 06:22:34;;;;;;;40.70;23.80;;;19.40;99.90;;;;;;5005192;28;20113;-56
2023/08/20 06:24:59;;;;;;;41.05;24.40;;;19.30;99.90;;;;;;5004392;28;20121;-58
2023/08/20 06:27:25;;;;;;;52.50;26.25;;;19.30;99.90;;;;;;5003572;28;20045;-57
2023/08/20 06:29:51;;;;;;;46.50;25.17;;;19.50;99.90;;;;;;5005686;28;20046;-56
2023/08/20 06:32:16;;;;;;;41.42;24.85;;;19.60;99.90;;;;;;5004632;28;20062;-57
2023/08/20 06:34:42;;;;;;;50.53;25.77;;;19.70;99.90;;;;;;5023076;28;20449;-57
2023/08/20 06:37:07;;;;;;;41.50;25.58;;;19.80;99.90;;;;;;5021426;28;20117;-57
2023/08/20 06:39:33;;;;;;;44.35;25.17;;;19.80;99.90;;;;;;5003143;28;20046;-57
2023/08/20 06:41:59;;;;;;;46.20;25.55;;;19.80;99.90;;;;;;5002717;28;20018;-58
2023/08/20 06:44:24;;;;;;;41.83;25.45;;;20.00;99.90;;;;;;5010544;28;20474;-56
2023/08/20 06:46:50;;;;;;;52.80;27.23;;;20.20;99.90;;;;;;5023765;28;20417;-57
2023/08/20 06:49:15;;;;;;;47.85;26.17;;;20.30;99.90;;;;;;5024186;28;20029;-57
2023/08/20 06:51:41;;;;;;;53.25;29.63;;;20.40;99.90;;;;;;5025151;28;20033;-58
2023/08/20 06:54:07;;;;;;;53.45;29.95;;;20.40;99.90;;;;;;5007964;28;20117;-58
2023/08/20 06:56:33;;;;;;;53.45;29.05;;;20.40;99.90;;;;;;5004855;28;20710;-57
2023/08/20 06:58:59;;;;;;;48.13;27.25;;;20.50;99.90;;;;;;5007306;28;20116;-57
2023/08/20 07:01:25;;;;;;;49.78;28.63;;;20.50;99.90;;;;;;5008949;28;20034;-57
2023/08/20 07:03:51;;;;;;;58.85;30.42;;;20.70;99.90;;;;;;5008558;28;20426;-56
2023/08/20 07:06:18;;;;;;;53.05;30.88;;;20.80;99.90;;;;;;5008474;28;20029;-56
2023/08/20 07:08:44;;;;;;;62.00;33.47;;;20.90;99.90;;;;;;5014020;28;20132;-57
2023/08/20 07:11:09;;;;;;;51.00;29.50;;;20.90;99.90;;;;;;5019620;28;20116;-56
2023/08/20 07:13:35;;;;;;;60.00;32.08;;;20.90;99.90;;;;;;5008561;28;20045;-58
2023/08/20 07:16:01;;;;;;;51.20;29.25;;;20.90;99.90;;;;;;5007536;28;20034;-58
2023/08/20 07:18:27;;;;;;;58.10;32.35;;;21.00;99.90;;;;;;5016829;28;20049;-57
2023/08/20 07:20:52;;;;;;;55.17;29.25;;;21.20;99.90;;;;;;5020566;28;20091;-57
2023/08/20 07:23:18;;;;;;;46.83;25.80;;;21.30;99.90;;;;;;5008653;28;20029;-57
2023/08/20 07:25:46;;;;;;;48.33;26.98;;;21.30;99.90;;;;;;5008597;28;20124;-56
2023/08/20 07:28:12;;;;;;;61.88;34.50;;;21.40;99.90;;;;;;5007960;28;20037;-57
2023/08/20 07:30:38;;;;;;;56.55;30.90;;;21.50;99.90;;;;;;5010339;28;20037;-57
2023/08/20 07:33:05;;;;;;;64.90;33.75;;;21.70;99.90;;;;;;5006803;28;20038;-57
2023/08/20 07:35:31;;;;;;;57.22;33.25;;;21.60;99.90;;;;;;5017375;28;20042;-57
2023/08/20 07:37:57;;;;;;;66.05;34.38;;;21.60;99.90;;;;;;5014288;28;20265;-57
2023/08/20 07:40:22;;;;;;;56.33;32.00;;;21.80;99.90;;;;;;5016464;28;20029;-56
2023/08/20 07:42:49;;;;;;;64.85;35.60;;;21.80;99.90;;;;;;5007778;28;20440;-57
2023/08/20 07:45:15;;;;;;;59.13;33.47;;;21.80;99.90;;;;;;5026269;28;20532;-57
2023/08/20 07:47:40;;;;;;;65.13;35.15;;;21.90;99.90;;;;;;5028141;28;20033;-57
2023/08/20 07:50:06;;;;;;;65.15;34.47;;;21.90;99.90;;;;;;5025698;28;20053;-56
2023/08/20 07:52:32;;;;;;;66.85;35.28;;;22.00;99.90;;;;;;5026119;28;20034;-56
2023/08/20 07:54:58;;;;;;;64.80;32.97;;;22.10;99.90;;;;;;5027383;28;20037;-56
2023/08/20 07:57:24;;;;;;;62.50;33.55;;;22.20;99.90;;;;;;5026947;28;20076;-56
2023/08/20 07:59:50;;;;;;;67.45;33.63;;;22.20;99.90;;;;;;5026826;28;20581;-57
2023/08/20 08:02:15;;;;;;;66.50;32.53;;;22.30;99.90;;;;;;5026895;28;20505;-57
2023/08/20 08:04:42;;;;;;;67.13;31.98;;;22.30;99.90;;;;;;5028422;28;20033;-56
2023/08/20 08:07:08;;;;;;;64.60;33.42;;;22.40;99.90;;;;;;5025841;28;20053;-57
2023/08/20 08:09:34;;;;;;;65.90;34.92;;;22.50;99.90;;;;;;5019469;28;20662;-56
2023/08/20 08:12:00;;;;;;;66.90;32.33;;;22.50;99.90;;;;;;5027578;28;20033;-57
2023/08/20 08:14:26;;;;;;;65.53;32.63;;;22.60;99.90;;;;;;5027000;28;20034;-58
2023/08/20 08:16:52;;;;;;;67.55;35.17;;;22.60;99.90;;;;;;5027585;28;20116;-58
2023/08/20 08:19:19;;;;;;;72.55;35.70;;;22.70;99.90;;;;;;5026918;28;20055;-58
2023/08/20 08:21:45;;;;;;;58.92;31.33;;;22.70;99.90;;;;;;5027415;28;20036;-56
2023/08/20 08:24:12;;;;;;;67.22;33.50;;;22.70;99.90;;;;;;5026693;28;20040;-56
2023/08/20 08:26:38;;;;;;;65.32;34.67;;;22.80;99.90;;;;;;5026217;28;20516;-57
2023/08/20 08:29:05;;;;;;;62.53;32.80;;;22.90;99.90;;;;;;5026882;28;20029;-57
2023/08/20 08:31:31;;;;;;;66.38;33.75;;;23.10;99.90;;;;;;5027498;28;20049;-57
2023/08/20 08:33:57;;;;;;;55.75;30.70;;;23.00;99.90;;;;;;5027591;28;20037;-57
2023/08/20 08:36:24;;;;;;;56.92;30.20;;;23.10;99.90;;;;;;5025298;28;20125;-57
2023/08/20 08:38:50;;;;;;;56.42;30.88;;;23.20;99.90;;;;;;5027855;28;20060;-57
2023/08/20 08:41:16;;;;;;;62.15;33.72;;;23.20;99.90;;;;;;5025995;28;20095;-57
2023/08/20 08:43:42;;;;;;;56.60;30.17;;;23.30;99.90;;;;;;5026727;28;20151;-57
2023/08/20 08:46:15;;;;;;;49.95;29.85;;;23.30;99.90;;;;;;5026534;28;20033;-57
2023/08/20 08:48:44;;;;;;;;;;;23.50;99.90;;;;;;5020967;28;20146;-56
2023/08/20 08:51:11;;;;;;;58.97;29.73;;;23.40;99.90;;;;;;5011447;28;19913;-55
2023/08/20 08:53:37;;;;;;;53.35;29.63;;;23.60;99.90;;;;;;5006570;28;20040;-57
2023/08/20 08:56:05;;;;;;;52.58;29.75;;;23.60;99.90;;;;;;5005119;28;20063;-57
2023/08/20 08:58:32;;;;;;;54.05;31.75;;;23.80;99.90;;;;;;5006660;28;20060;-57
2023/08/20 09:00:58;;;;;;;48.17;31.42;;;23.70;99.90;;;;;;5005960;28;20413;-57
2023/08/20 09:03:24;;;;;;;52.35;31.35;;;;;;;;;;5006321;28;20034;-57
2023/08/20 09:05:59;;;;;;;50.05;30.38;;;23.90;99.90;;;;;;5006276;28;20030;-57
2023/08/20 09:08:31;;;;;;;42.50;25.25;;;23.90;99.90;;;;;;5009926;28;20044;-57
2023/08/20 09:11:01;;;;;;;46.30;29.30;;;24.00;99.90;;;;;;5018203;28;20432;-58
2023/08/20 09:13:37;;;;;;;40.15;25.55;;;23.90;99.90;;;;;;5006271;28;20257;-57
2023/08/20 09:16:10;;;;;;;45.00;27.77;;;23.90;99.90;;;;;;5005989;28;20046;-57
2023/08/20 09:18:45;;;;;;;36.63;22.50;;;24.00;99.90;;;;;;5021029;28;20034;-57
2023/08/20 09:21:12;;;;;;;34.97;23.73;;;24.10;99.90;;;;;;5004823;28;20057;-57
2023/08/20 09:23:38;;;;;;;36.97;23.75;;;24.10;99.90;;;;;;5006811;28;20044;-57
2023/08/20 09:26:06;;;;;;;45.42;25.77;;;24.20;99.90;;;;;;5006016;28;20490;-57
2023/08/20 09:28:47;;;;;;;53.65;29.83;;;24.30;99.90;;;;;;5006480;28;20041;-57
2023/08/20 09:31:17;;;;;;;44.67;27.10;;;24.20;99.90;;;;;;5004898;28;20132;-58
2023/08/20 09:33:53;;;;;;;44.10;27.58;;;24.10;99.90;;;;;;5011904;28;20486;-56
2023/08/20 09:36:19;;;;;;;47.97;28.60;;;24.00;99.90;;;;;;5006601;28;20444;-57
2023/08/20 09:38:45;;;;;;;44.85;28.35;;;24.00;99.90;;;;;;5006539;28;20042;-57
2023/08/20 09:41:12;;;;;;;47.90;28.08;;;23.90;99.90;;;;;;5005894;28;20382;-56
2023/08/20 09:43:43;;;;;;;41.63;25.90;;;23.80;99.90;;;;;;5018451;28;20539;-57
2023/08/20 09:46:11;;;;;;;45.22;25.50;;;24.20;99.90;;;;;;5014311;28;20087;-55
2023/08/20 09:48:38;;;;;;;37.05;23.65;;;24.30;99.90;;;;;;5025295;28;20063;-57
2023/08/20 09:51:09;;;;;;;38.60;23.88;;;24.40;99.90;;;;;;5016668;28;20084;-56
2023/08/20 09:53:48;;;;;;;36.00;23.27;;;24.40;99.90;;;;;;5008793;28;20044;-57
2023/08/20 09:56:30;;;;;;;32.17;22.10;;;24.60;99.90;;;;;;5003427;28;20038;-56
2023/08/20 09:58:58;;;;;;;33.80;21.63;;;24.60;99.90;;;;;;5003384;28;20077;-57
2023/08/20 10:01:25;;;;;;;32.70;19.42;;;24.80;99.90;;;;;;5012233;28;20103;-58
2023/08/20 10:03:50;;;;;;;29.05;17.17;;;24.80;99.90;;;;;;5005051;28;20353;-56
2023/08/20 10:06:17;;;;;;;26.75;18.27;;;24.80;99.90;;;;;;5019591;28;20478;-57
2023/08/20 10:08:43;;;;;;;26.80;16.92;;;24.80;99.90;;;;;;4995945;28;20034;-58
2023/08/20 10:11:09;;;;;;;25.15;16.33;;;24.70;99.90;;;;;;5014727;28;20055;-58
2023/08/20 10:13:34;;;;;;;26.13;15.90;;;24.60;99.90;;;;;;5012320;28;20117;-57
2023/08/20 10:16:00;;;;;;;29.08;19.20;;;24.60;99.90;;;;;;5021102;28;20045;-57
2023/08/20 10:18:26;;;;;;;23.95;16.50;;;24.80;99.90;;;;;;5003390;28;20026;-57
2023/08/20 10:20:52;;;;;;;28.05;17.67;;;24.90;99.90;;;;;;5020394;28;20765;-57
2023/08/20 10:23:25;;;;;;;25.90;16.58;;;24.90;99.90;;;;;;5013939;28;20045;-57
2023/08/20 10:25:52;;;;;;;24.52;17.02;;;25.00;99.90;;;;;;5010797;28;20037;-57
2023/08/20 10:28:25;;;;;;;25.02;15.70;;;24.90;99.90;;;;;;4995098;28;20033;-57
2023/08/20 10:31:11;;;;;;;;;;;25.10;99.90;;;;;;5005066;28;20539;-57
2023/08/20 10:33:54;;;;;;;17.00;12.73;;;25.10;99.90;;;;;;5017664;28;19916;-57
2023/08/20 10:36:24;;;;;;;20.63;13.33;;;25.10;99.90;;;;;;5024171;28;20038;-57
2023/08/20 10:38:50;;;;;;;21.48;12.80;;;25.40;99.90;;;;;;5017334;28;20411;-57
2023/08/20 10:41:16;;;;;;;19.45;12.63;;;25.10;99.90;;;;;;5008549;28;20060;-58
2023/08/20 10:43:49;;;;;;;18.25;12.95;;;25.20;99.90;;;;;;4999027;28;20038;-57
2023/08/20 10:46:16;;;;;;;22.05;14.02;;;25.40;99.90;;;;;;4996924;28;20521;-58
2023/08/20 10:48:42;;;;;;;19.20;11.63;;;25.50;99.90;;;;;;4998991;28;20040;-60
2023/08/20 10:51:12;;;;;;;17.17;11.65;;;25.30;99.90;;;;;;5004055;28;20034;-57
2023/08/20 10:53:39;;;;;;;17.45;11.50;;;25.80;99.90;;;;;;5005071;28;20597;-58
2023/08/20 10:56:15;;;;;;;18.52;12.63;;;25.50;99.90;;;;;;5005483;28;20113;-56
2023/08/20 10:58:46;;;;;;;25.25;14.85;;;25.30;99.90;;;;;;5018502;28;20034;-57
2023/08/20 11:01:20;;;;;;;22.35;15.05;;;25.10;99.90;;;;;;5008198;28;20131;-58
2023/08/20 11:03:48;;;;;;;27.95;14.45;;;25.10;99.90;;;;;;5008515;28;20066;-57
2023/08/20 11:06:14;;;;;;;19.98;12.52;;;25.30;99.90;;;;;;5004074;28;20577;-58
2023/08/20 11:08:41;;;;;;;19.90;12.80;;;25.30;99.90;;;;;;5010135;28;20401;-57
2023/08/20 11:11:08;;;;;;;21.27;13.82;;;25.10;99.90;;;;;;5000457;28;20498;-58
2023/08/20 11:13:34;;;;;;;19.08;12.85;;;25.00;99.90;;;;;;5017916;28;20477;-58
2023/08/20 11:16:04;;;;;;;19.42;12.85;;;25.00;99.90;;;;;;5007979;28;20093;-58
2023/08/20 11:18:33;;;;;;;17.40;12.02;;;25.10;99.90;;;;;;5011981;28;20134;-58
2023/08/20 11:20:59;;;;;;;21.40;12.23;;;25.20;99.90;;;;;;5005104;28;20569;-58
2023/08/20 11:23:25;;;;;;;13.57;11.77;;;25.30;99.90;;;;;;4993761;28;20030;-57
2023/08/20 11:25:51;;;;;;;17.20;10.65;;;25.40;99.90;;;;;;5004591;28;20064;-58
2023/08/20 11:28:17;;;;;;;17.95;9.52;;;25.50;99.90;;;;;;5004664;28;20038;-58
2023/08/20 11:30:43;;;;;;;15.55;7.65;;;25.70;99.90;;;;;;5003430;28;20074;-58
2023/08/20 11:33:09;;;;;;;15.68;9.30;;;25.70;99.90;;;;;;5010063;28;20458;-58
2023/08/20 11:35:35;;;;;;;15.68;10.10;;;25.80;99.90;;;;;;5004688;28;20088;-57
2023/08/20 11:38:01;;;;;;;16.02;9.75;;;;;;;;;;5004561;28;20050;-59
2023/08/20 11:40:27;;;;;;;16.63;9.82;;;25.80;99.90;;;;;;5017889;28;20037;-58
2023/08/20 11:42:53;;;;;;;18.08;9.55;;;26.00;99.90;;;;;;5004613;28;20036;-58
2023/08/20 11:45:18;;;;;;;14.00;8.57;;;25.90;99.90;;;;;;5013781;28;20041;-58
2023/08/20 11:47:44;;;;;;;15.30;8.32;;;25.90;99.90;;;;;;5022646;28;20065;-58
2023/08/20 11:50:10;;;;;;;16.42;7.57;;;25.80;99.90;;;;;;5010900;28;20030;-58
2023/08/20 11:52:36;;;;;;;10.50;7.40;;;26.00;99.90;;;;;;5029332;28;20037;-57
2023/08/20 11:55:03;;;;;;;16.85;7.53;;;26.00;99.90;;;;;;5016192;28;20112;-56
2023/08/20 11:57:29;;;;;;;17.02;7.47;;;26.10;99.90;;;;;;4998493;28;20576;-57
2023/08/20 11:59:55;;;;;;;16.33;8.00;;;25.40;99.90;;;;;;5006113;28;20080;-57
2023/08/20 12:02:27;;;;;;;12.75;6.75;;;26.00;99.90;;;;;;5005565;28;20041;-58
2023/08/20 12:04:56;;;;;;;19.77;7.20;;;26.00;99.90;;;;;;5022479;28;20033;-58
2023/08/20 12:07:25;;;;;;;15.65;7.32;;;26.00;99.90;;;;;;5015409;28;20038;-58
2023/08/20 12:09:50;;;;;;;18.20;6.68;;;25.90;99.90;;;;;;5022197;28;20033;-58
2023/08/20 12:12:20;;;;;;;19.23;6.60;;;25.90;99.90;;;;;;5024870;28;20048;-58
2023/08/20 12:14:46;;;;;;;12.90;6.88;;;25.80;99.90;;;;;;5008280;28;20084;-58
2023/08/20 12:17:11;;;;;;;15.32;6.47;;;25.10;99.90;;;;;;5016271;28;20045;-58
2023/08/20 12:19:37;;;;;;;17.13;6.68;;;26.00;99.90;;;;;;5027419;28;20068;-58
2023/08/20 12:22:03;;;;;;;13.93;6.93;;;26.00;99.90;;;;;;5026422;28;20037;-58
2023/08/20 12:24:29;;;;;;;16.13;6.72;;;25.90;99.90;;;;;;5007820;28;20379;-58
2023/08/20 12:26:55;;;;;;;13.25;6.10;;;26.00;99.90;;;;;;5007533;28;20037;-57
2023/08/20 12:29:21;;;;;;;14.40;5.65;;;25.90;99.90;;;;;;5006430;28;20104;-57